createdAt,value
2018-12-19T00:03:40.691Z,95142.95
2018-12-19T00:06:44.001Z,95136.28
2018-12-19T00:09:47.422Z,95129.21
2018-12-19T00:12:50.796Z,95123.72
2018-12-19T00:15:54.207Z,95123.80
2018-12-19T00:18:57.607Z,95122.87
2018-12-19T00:22:00.945Z,95121.79
2018-12-19T00:25:05.017Z,95121.61
2018-12-19T00:28:08.341Z,95116.78
2018-12-19T00:31:11.716Z,95115.81
2018-12-19T00:34:15.033Z,95095.77
2018-12-19T00:37:18.413Z,95098.41
2018-12-19T00:40:21.725Z,95091.69
2018-12-19T00:43:25.053Z,95081.15
2018-12-19T00:46:28.370Z,95083.51
2018-12-19T00:49:31.693Z,95087.45
2018-12-19T00:52:35.049Z,95073.25
2018-12-19T00:55:38.369Z,95065.97
2018-12-19T00:58:41.718Z,95072.27
2018-12-19T01:01:45.029Z,95063.22
2018-12-19T01:04:48.415Z,95066.80
2018-12-19T01:07:51.829Z,95061.32
2018-12-19T01:10:55.137Z,95070.69
2018-12-19T01:13:58.453Z,95078.81
2018-12-19T01:17:01.828Z,95082.31
2018-12-19T01:20:05.997Z,95077.66
2018-12-19T01:23:09.345Z,95082.67
2018-12-19T01:26:12.666Z,95096.89
2018-12-19T01:29:15.985Z,95089.04
2018-12-19T01:32:19.328Z,95099.16
2018-12-19T01:35:22.690Z,95101.98
2018-12-19T01:38:26.040Z,95095.22
2018-12-19T01:41:29.356Z,95092.47
2018-12-19T01:44:32.794Z,95094.97
2018-12-19T01:47:36.133Z,95103.56
2018-12-19T01:50:39.452Z,95099.26
2018-12-19T01:53:42.844Z,95099.62
2018-12-19T01:56:46.158Z,95095.91
2018-12-19T01:59:49.481Z,95092.98
2018-12-19T02:06:09.720Z,95085.61
2018-12-19T02:09:13.110Z,95081.16
2018-12-19T02:12:16.420Z,95071.08
2018-12-19T02:15:19.757Z,95063.23
2018-12-19T02:18:23.072Z,95052.14
2018-12-19T02:21:26.386Z,95064.70
2018-12-19T02:24:29.702Z,95059.44
2018-12-19T02:27:33.012Z,95051.41
2018-12-19T02:30:36.329Z,95051.88
2018-12-19T02:33:39.689Z,95049.88
2018-12-19T02:36:43.006Z,95065.57
2018-12-19T02:39:46.325Z,95058.12
2018-12-19T02:42:49.642Z,95070.42
2018-12-19T02:45:52.974Z,95064.03
2018-12-19T02:48:56.374Z,95064.98
2018-12-19T02:51:59.681Z,95061.75
2018-12-19T02:55:03.038Z,95069.59
2018-12-19T02:58:06.352Z,95077.19
2018-12-19T03:01:10.084Z,95090.19
2018-12-19T03:04:13.413Z,95100.41
2018-12-19T03:07:16.730Z,95100.03
2018-12-19T03:10:20.085Z,95093.64
2018-12-19T03:13:23.417Z,95105.65
2018-12-19T03:16:26.773Z,95090.70
2018-12-19T03:19:30.161Z,95098.20
2018-12-19T03:22:33.514Z,95121.48
2018-12-19T03:25:36.828Z,95122.57
2018-12-19T03:28:40.260Z,95125.07
2018-12-19T03:31:44.358Z,95112.42
2018-12-19T03:34:47.760Z,95115.20
2018-12-19T03:37:51.072Z,95109.82
2018-12-19T03:40:54.558Z,95126.33
2018-12-19T03:43:57.879Z,95140.80
2018-12-19T03:47:01.225Z,95148.09
2018-12-19T03:50:04.766Z,95143.75
2018-12-19T03:53:08.082Z,95140.23
2018-12-19T03:56:11.396Z,95132.23
2018-12-19T03:59:14.716Z,95119.67
2018-12-19T04:02:18.024Z,95118.03
2018-12-19T04:05:21.365Z,95114.84
2018-12-19T04:08:24.755Z,95122.51
2018-12-19T04:11:28.120Z,95116.34
2018-12-19T04:14:31.435Z,95120.78
2018-12-19T04:17:34.781Z,95123.53
2018-12-19T04:20:38.149Z,95122.78
2018-12-19T04:23:41.458Z,95125.44
2018-12-19T04:26:44.785Z,95120.04
2018-12-19T04:29:48.542Z,95121.81
2018-12-19T04:32:52.230Z,95125.84
2018-12-19T04:35:55.822Z,95125.98
2018-12-19T04:38:59.186Z,95108.75
2018-12-19T04:42:02.501Z,95113.63
2018-12-19T04:45:06.063Z,95116.59
2018-12-19T04:48:09.401Z,95108.63
2018-12-19T04:51:12.720Z,95113.06
2018-12-19T04:54:16.039Z,95111.75
2018-12-19T04:57:19.371Z,95116.72
2018-12-19T05:00:22.803Z,95109.23
2018-12-19T05:03:26.166Z,95109.82
2018-12-19T05:06:29.506Z,95110.84
2018-12-19T05:09:33.009Z,95111.68
2018-12-19T05:12:36.302Z,95114.28
2018-12-19T05:15:39.701Z,95119.55
2018-12-19T05:18:43.079Z,95110.34
2018-12-19T05:21:46.381Z,95114.75
2018-12-19T05:24:49.701Z,95111.44
2018-12-19T05:27:53.082Z,95113.81
2018-12-19T05:30:56.397Z,95113.16
2018-12-19T05:33:59.738Z,95116.35
2018-12-19T05:37:03.115Z,95117.20
2018-12-19T05:40:07.877Z,95112.06
2018-12-19T05:43:11.213Z,95115.77
2018-12-19T05:46:14.592Z,95120.22
2018-12-19T05:49:17.998Z,95113.40
2018-12-19T05:55:40.248Z,95105.41
2018-12-19T05:58:43.659Z,95112.50
2018-12-19T06:01:47.112Z,95106.77
2018-12-19T06:04:50.445Z,95114.89
2018-12-19T06:07:53.853Z,95117.00
2018-12-19T06:10:57.167Z,95114.91
2018-12-19T06:14:00.542Z,95129.03
2018-12-19T06:17:03.863Z,95120.72
2018-12-19T06:20:07.346Z,95126.20
2018-12-19T06:23:10.750Z,95117.66
2018-12-19T06:26:14.112Z,95123.41
2018-12-19T06:29:17.440Z,95130.48
2018-12-19T06:32:20.758Z,95130.48
2018-12-19T06:35:24.141Z,95121.09
2018-12-19T06:38:27.574Z,95127.05
2018-12-19T06:41:30.881Z,95122.18
2018-12-19T06:44:34.190Z,95125.55
2018-12-19T06:47:37.539Z,95117.70
2018-12-19T06:50:40.937Z,95119.58
2018-12-19T06:53:44.272Z,95118.02
2018-12-19T06:56:47.639Z,95124.29
2018-12-19T06:59:51.025Z,95116.56
2018-12-19T07:02:54.329Z,95122.58
2018-12-19T07:05:57.726Z,95126.29
2018-12-19T07:09:01.172Z,95127.86
2018-12-19T07:12:04.637Z,95127.58
2018-12-19T07:15:08.318Z,95130.80
2018-12-19T07:18:11.621Z,95125.59
2018-12-19T07:21:15.069Z,95126.95
2018-12-19T07:24:18.416Z,95135.84
2018-12-19T07:27:21.750Z,95130.91
2018-12-19T07:30:25.161Z,95140.06
2018-12-19T07:33:28.460Z,95146.07
2018-12-19T07:36:31.769Z,95143.75
2018-12-19T07:39:35.153Z,95148.98
2018-12-19T07:42:38.520Z,95150.55
2018-12-19T07:45:41.844Z,95151.91
2018-12-19T07:48:45.197Z,95158.70
2018-12-19T07:51:48.526Z,95162.38
2018-12-19T07:54:51.851Z,95155.86
2018-12-19T07:57:55.192Z,95163.70
2018-12-19T08:00:58.489Z,95159.55
2018-12-19T08:04:02.528Z,95162.41
2018-12-19T08:07:05.922Z,95170.78
2018-12-19T08:10:09.333Z,95177.05
2018-12-19T08:13:12.634Z,95173.66
2018-12-19T08:16:16.018Z,95171.58
2018-12-19T08:19:19.313Z,95170.24
2018-12-19T08:22:22.629Z,95167.08
2018-12-19T08:25:26.022Z,95168.87
2018-12-19T08:28:29.346Z,95173.56
2018-12-19T08:31:32.684Z,95170.41
2018-12-19T08:34:36.017Z,95175.30
2018-12-19T08:37:39.356Z,95175.76
2018-12-19T08:40:42.653Z,95176.95
2018-12-19T08:43:46.012Z,95179.23
2018-12-19T08:46:49.410Z,95173.67
2018-12-19T08:49:52.706Z,95178.78
2018-12-19T08:52:56.118Z,95179.47
2018-12-19T08:55:59.414Z,95172.59
2018-12-19T08:59:02.716Z,95175.15
2018-12-19T09:02:06.009Z,95171.41
2018-12-19T09:05:09.405Z,95167.98
2018-12-19T09:08:12.723Z,95163.46
2018-12-19T09:11:16.082Z,95165.72
2018-12-19T09:14:19.484Z,95173.57
2018-12-19T09:17:22.825Z,95175.39
2018-12-19T09:20:26.211Z,95179.59
2018-12-19T09:23:29.600Z,95177.70
2018-12-19T09:26:33.016Z,95177.16
2018-12-19T09:29:36.521Z,95169.81
2018-12-19T09:32:39.819Z,95167.66
2018-12-19T09:35:43.112Z,95172.17
2018-12-19T09:38:46.499Z,95171.39
2018-12-19T09:41:49.816Z,95183.45
2018-12-19T09:44:53.189Z,95186.56
2018-12-19T09:47:56.503Z,95185.55
2018-12-19T09:50:59.894Z,95180.33
2018-12-19T09:54:03.289Z,95176.30
2018-12-19T09:57:06.592Z,95175.72
2018-12-19T10:03:33.037Z,95172.31
2018-12-19T10:06:36.349Z,95174.48
2018-12-19T10:09:39.640Z,95164.66
2018-12-19T10:12:42.942Z,95156.64
2018-12-19T10:15:46.301Z,95149.64
2018-12-19T10:18:49.639Z,95146.58
2018-12-19T10:21:52.942Z,95150.58
2018-12-19T10:25:01.749Z,95148.73
2018-12-19T10:28:05.267Z,95140.75
2018-12-19T10:31:08.663Z,95139.59
2018-12-19T10:34:12.010Z,95136.23
2018-12-19T10:37:15.468Z,95131.48
2018-12-19T10:40:18.843Z,95120.08
2018-12-19T10:43:22.169Z,95125.30
2018-12-19T10:46:25.564Z,95133.11
2018-12-19T10:49:28.860Z,95124.92
2018-12-19T10:52:32.164Z,95124.47
2018-12-19T10:55:35.474Z,95123.16
2018-12-19T10:58:38.878Z,95113.67
2018-12-19T11:01:42.177Z,95110.14
2018-12-19T11:04:45.656Z,95099.50
2018-12-19T11:07:48.977Z,95113.31
2018-12-19T11:10:52.344Z,95106.40
2018-12-19T11:13:55.652Z,95099.82
2018-12-19T11:16:59.202Z,95109.56
2018-12-19T11:20:03.797Z,95105.05
2018-12-19T11:23:07.178Z,95096.38
2018-12-19T11:26:10.613Z,95088.20
2018-12-19T11:29:13.929Z,95083.50
2018-12-19T11:32:17.278Z,95076.20
2018-12-19T11:35:20.605Z,95074.83
2018-12-19T11:38:23.905Z,95062.05
2018-12-19T11:41:27.196Z,95058.64
2018-12-19T11:44:30.537Z,95061.89
2018-12-19T11:47:33.978Z,95057.53
2018-12-19T11:50:37.359Z,95047.42
2018-12-19T11:53:40.773Z,95047.78
2018-12-19T11:56:44.160Z,95042.59
2018-12-19T11:59:47.572Z,95031.70
2018-12-19T12:02:50.991Z,95030.30
2018-12-19T12:05:54.376Z,95024.17
2018-12-19T12:08:57.782Z,95036.22
2018-12-19T12:12:01.177Z,95029.52
2018-12-19T12:15:05.836Z,95018.66
2018-12-19T12:18:09.366Z,95019.06
2018-12-19T12:21:12.784Z,95010.13
2018-12-19T12:24:16.442Z,95011.16
2018-12-19T12:27:19.918Z,95008.95
2018-12-19T12:30:24.221Z,95009.81
2018-12-19T12:33:27.532Z,95010.98
2018-12-19T12:36:30.928Z,95019.09
2018-12-19T12:39:34.333Z,95018.73
2018-12-19T12:42:37.951Z,95011.72
2018-12-19T12:45:41.280Z,95008.83
2018-12-19T12:48:44.624Z,95019.39
2018-12-19T12:51:48.049Z,95010.95
2018-12-19T12:54:51.429Z,95001.08
2018-12-19T12:57:54.765Z,95003.18
2018-12-19T13:00:58.132Z,94994.49
2018-12-19T13:04:01.461Z,95000.79
2018-12-19T13:07:04.825Z,94988.02
2018-12-19T13:10:09.162Z,94982.88
2018-12-19T13:13:12.554Z,94985.14
2018-12-19T13:16:15.951Z,94989.43
2018-12-19T13:19:19.251Z,94996.22
2018-12-19T13:22:22.573Z,94993.75
2018-12-19T13:25:25.959Z,94994.55
2018-12-19T13:28:29.346Z,94991.69
2018-12-19T13:31:32.642Z,94985.83
2018-12-19T13:34:35.955Z,94979.55
2018-12-19T13:37:39.259Z,94976.63
2018-12-19T13:40:42.653Z,94973.89
2018-12-19T13:43:46.003Z,94978.94
2018-12-19T13:46:49.302Z,94988.34
2018-12-19T13:49:52.714Z,94983.69
2018-12-19T13:52:56.058Z,94985.37
2018-12-19T13:55:59.381Z,94984.95
2018-12-19T13:59:02.948Z,94975.97
2018-12-19T14:02:06.345Z,94965.36
2018-12-19T14:05:09.725Z,94960.84
2018-12-19T14:08:13.021Z,94957.56
2018-12-19T14:11:16.317Z,94956.77
2018-12-19T14:14:19.612Z,94965.30
2018-12-19T14:17:22.913Z,94956.98
2018-12-19T14:20:26.211Z,94949.94
2018-12-19T14:23:30.551Z,94950.92
2018-12-19T14:26:33.928Z,94951.31
2018-12-19T14:29:37.228Z,94953.69
2018-12-19T14:32:40.658Z,94946.42
2018-12-19T14:35:44.064Z,94946.25
2018-12-19T14:38:47.381Z,94944.16
2018-12-19T14:41:50.749Z,94934.63
2018-12-19T14:44:54.190Z,94934.63
2018-12-19T14:47:57.514Z,94926.98
2018-12-19T14:51:00.878Z,94922.23
2018-12-19T14:54:04.245Z,94920.35
2018-12-19T14:57:07.554Z,94922.14
2018-12-19T15:00:11.452Z,94920.78
2018-12-19T15:03:14.855Z,94923.70
2018-12-19T15:06:18.189Z,94920.94
2018-12-19T15:09:21.540Z,94918.41
2018-12-19T15:12:25.899Z,94925.23
2018-12-19T15:15:29.520Z,94933.18
2018-12-19T15:18:32.877Z,94926.19
2018-12-19T15:21:36.212Z,94919.38
2018-12-19T15:24:39.573Z,94924.25
2018-12-19T15:27:42.864Z,94941.53
2018-12-19T15:30:46.165Z,94933.61
2018-12-19T15:33:49.508Z,94945.11
2018-12-19T15:36:52.824Z,94935.42
2018-12-19T15:39:56.204Z,94929.17
2018-12-19T15:42:59.606Z,94913.18
2018-12-19T15:46:02.916Z,94921.30
2018-12-19T15:49:06.226Z,94917.11
2018-12-19T15:52:09.540Z,94920.68
2018-12-19T15:55:12.966Z,94918.06
2018-12-19T15:58:16.355Z,94913.27
2018-12-19T16:01:19.693Z,94898.86
2018-12-19T16:04:22.989Z,94886.53
2018-12-19T16:07:26.288Z,94871.84
2018-12-19T16:10:29.582Z,94866.22
2018-12-19T16:13:33.253Z,94858.45
2018-12-19T16:16:36.632Z,94865.54
2018-12-19T16:19:39.919Z,94865.21
2018-12-19T16:22:43.252Z,94865.80
2018-12-19T16:25:46.538Z,94854.09
2018-12-19T16:28:49.844Z,94848.52
2018-12-19T16:31:53.146Z,94849.30
2018-12-19T16:34:56.471Z,94853.88
2018-12-19T16:37:59.806Z,94855.27
2018-12-19T16:41:03.140Z,94856.37
2018-12-19T16:44:06.437Z,94862.96
2018-12-19T16:47:09.833Z,94862.76
2018-12-19T16:50:13.205Z,94862.76
2018-12-19T16:53:16.500Z,94870.39
2018-12-19T16:56:19.929Z,94876.41
2018-12-19T16:59:23.333Z,94888.44
2018-12-19T17:02:26.689Z,94896.00
2018-12-19T17:05:30.038Z,94895.52
2018-12-19T17:08:34.301Z,94898.61
2018-12-19T17:11:37.644Z,94899.64
2018-12-19T17:14:41.038Z,94893.34
2018-12-19T17:17:44.333Z,94891.00
2018-12-19T17:20:47.758Z,94897.55
2018-12-19T17:23:51.145Z,94897.28
2018-12-19T17:26:54.457Z,94886.22
2018-12-19T17:29:57.849Z,94878.95
2018-12-19T17:33:01.181Z,94877.82
2018-12-19T17:36:05.349Z,94873.06
2018-12-19T17:39:08.772Z,94874.60
2018-12-19T17:42:12.152Z,94874.83
2018-12-19T17:45:15.561Z,94875.44
2018-12-19T17:48:18.889Z,94874.39
2018-12-19T17:51:22.194Z,94870.72
2018-12-19T17:54:25.530Z,94868.17
2018-12-19T17:57:28.865Z,94852.80
2018-12-19T18:00:32.247Z,94849.17
2018-12-19T18:03:35.573Z,94840.13
2018-12-19T18:06:38.872Z,94827.91
2018-12-19T18:09:42.202Z,94817.78
2018-12-19T18:12:45.650Z,94804.97
2018-12-19T18:15:48.961Z,94802.84
2018-12-19T18:18:52.332Z,94796.02
2018-12-19T18:21:55.753Z,94785.91
2018-12-19T18:24:59.072Z,94781.53
2018-12-19T18:28:02.349Z,94781.77
2018-12-19T18:31:05.749Z,94786.05
2018-12-19T18:34:09.091Z,94791.41
2018-12-19T18:37:12.414Z,94793.33
2018-12-19T18:40:15.756Z,94803.80
2018-12-19T18:43:19.077Z,94804.13
2018-12-19T18:46:22.369Z,94814.39
2018-12-19T18:49:25.750Z,94823.86
2018-12-19T18:52:29.061Z,94836.69
2018-12-19T18:55:32.426Z,94831.77
2018-12-19T18:58:37.213Z,94823.50
2018-12-19T19:01:40.669Z,94826.59
2018-12-19T19:04:44.153Z,94826.06
2018-12-19T19:07:47.574Z,94834.34
2018-12-19T19:10:50.877Z,94831.46
2018-12-19T19:13:54.174Z,94819.73
2018-12-19T19:16:57.973Z,94819.69
2018-12-19T19:20:01.274Z,94821.31
2018-12-19T19:23:04.671Z,94818.79
2018-12-19T19:26:08.102Z,94823.34
2018-12-19T19:29:11.507Z,94819.41
2018-12-19T19:32:14.822Z,94821.03
2018-12-19T19:35:18.162Z,94829.62
2018-12-19T19:38:21.470Z,94832.84
2018-12-19T19:41:24.869Z,94829.09
2018-12-19T19:44:28.150Z,94829.83
2018-12-19T19:47:31.460Z,94828.05
2018-12-19T19:50:34.866Z,94823.56
2018-12-19T19:53:38.180Z,94824.30
2018-12-19T19:56:41.465Z,94827.73
2018-12-19T19:59:44.753Z,94829.52
2018-12-19T20:02:48.059Z,94837.58
2018-12-19T20:05:51.458Z,94829.36
2018-12-19T20:08:57.127Z,94834.33
2018-12-19T20:12:00.437Z,94847.41
2018-12-19T20:15:04.518Z,94848.76
2018-12-19T20:18:08.368Z,94857.50
2018-12-19T20:21:11.661Z,94856.87
2018-12-19T20:24:14.946Z,94863.05
2018-12-19T20:27:18.374Z,94865.20
2018-12-19T20:30:21.662Z,94866.83
2018-12-19T20:33:26.189Z,94867.91
2018-12-19T20:36:29.756Z,94867.74
2018-12-19T20:39:33.050Z,94853.36
2018-12-19T20:42:36.373Z,94862.73
2018-12-19T20:45:39.749Z,94858.75
2018-12-19T20:48:43.153Z,94863.14
2018-12-19T20:51:47.053Z,94859.96
2018-12-19T20:54:50.325Z,94859.53
2018-12-19T20:57:53.653Z,94862.66
2018-12-19T21:00:57.041Z,94868.05
2018-12-19T21:04:00.458Z,94870.33
2018-12-19T21:07:03.856Z,94877.14
2018-12-19T21:10:08.157Z,94877.34
2018-12-19T21:13:11.457Z,94873.25
2018-12-19T21:16:14.804Z,94884.28
2018-12-19T21:19:18.172Z,94888.58
2018-12-19T21:22:21.481Z,94886.52
2018-12-19T21:25:24.987Z,94887.94
2018-12-19T21:28:28.375Z,94887.70
2018-12-19T21:31:31.737Z,94890.36
2018-12-19T21:34:35.104Z,94892.45
2018-12-19T21:37:38.478Z,94885.86
2018-12-19T21:40:41.928Z,94895.92
2018-12-19T21:43:45.279Z,94896.72
2018-12-19T21:46:48.793Z,94899.78
2018-12-19T21:49:52.236Z,94903.59
2018-12-19T21:52:55.721Z,94912.03
2018-12-19T21:55:59.070Z,94913.23
2018-12-19T21:59:02.471Z,94910.39
2018-12-19T22:02:06.091Z,94908.50
2018-12-19T22:05:09.427Z,94917.58
2018-12-19T22:08:12.876Z,94920.30
2018-12-19T22:11:16.347Z,94917.72
2018-12-19T22:14:19.746Z,94918.34
2018-12-19T22:17:28.656Z,94908.96
2018-12-19T22:20:32.101Z,94900.83
2018-12-19T22:23:35.586Z,94906.41
2018-12-19T22:26:39.021Z,94906.59
2018-12-19T22:29:42.600Z,94901.08
2018-12-19T22:32:45.959Z,94905.48
2018-12-19T22:35:49.322Z,94910.26
2018-12-19T22:38:52.625Z,94904.80
2018-12-19T22:41:55.921Z,94909.19
2018-12-19T22:44:59.226Z,94903.38
2018-12-19T22:48:02.638Z,94902.81
2018-12-19T22:51:06.192Z,94904.19
2018-12-19T22:54:09.619Z,94899.33
2018-12-19T22:57:13.028Z,94892.53
2018-12-19T23:00:17.152Z,94895.47
2018-12-19T23:06:45.492Z,94885.69
2018-12-19T23:09:48.951Z,94894.32
2018-12-19T23:12:52.530Z,94897.09
2018-12-19T23:15:55.968Z,94901.09
2018-12-19T23:18:59.696Z,94895.36
2018-12-19T23:22:03.205Z,94897.48
2018-12-19T23:25:07.328Z,94890.38
2018-12-19T23:28:10.864Z,94889.39
2018-12-19T23:31:14.462Z,94891.79
2018-12-19T23:34:17.821Z,94900.67
2018-12-19T23:37:21.127Z,94897.22
2018-12-19T23:40:24.658Z,94894.61
2018-12-19T23:43:28.057Z,94901.69
2018-12-19T23:46:33.357Z,94912.64
2018-12-19T23:49:36.816Z,94906.11
2018-12-19T23:52:40.394Z,94909.53
2018-12-19T23:55:43.950Z,94916.03
2018-12-19T23:58:47.321Z,94916.80
